SBSN/STM METAR and TAF weather

Enter ICAO airport designator
Station Type Date Time Source
SBSN METAR 2019/04/18 10:00 UTC NOAA

SBSN 181000Z 12002KT 9999 SCT010 25/25 Q1010


Station Type Date Time Source
SBSN Decoded METAR 2019/04/18 10:00 UTC NOAA

Santarem-Aeroporto, Brazil (SBSN) 02-26S 054-43W 72M
Apr 18, 2019 - 06:00 AM EDT / 2019.04.18 1000 UTC
Wind: from the ESE (120 degrees) at 2 MPH (2 KT):0
Visibility: greater than 7 mile(s):0
Sky conditions: partly cloudy
Temperature: 77 F (25 C)
Dew Point: 77 F (25 C)
Relative Humidity: 100%
Pressure (altimeter): 29.83 in. Hg (1010 hPa)
ob: SBSN 181000Z 12002KT 9999 SCT010 25/25 Q1010
cycle: 10

Station Type Date Time Source
SBSN TAF 2019/04/18 12:24 UTC NOAA

TAF TAF SBSN 181000Z 1812/1912 06006KT 9999 FEW015 TX39/1818Z TN24/1908Z
BECMG 1815/1817 4000 TSRA SCT010 FEW021CB
BECMG 1817/1818 05010KT FEW017 B

Example: see airport list